Time;durP1;ratioP1;P1;durP2;ratioP2;P2;SDS_P1;SDS_P2;PMS_P1;PMS_P2;Temp;Humidity;BMP_temperature;BMP_pressure;BME280_temperature;BME280_humidity;BME280_pressure;Samples;Min_cycle;Max_cycle;Signal;HPM_P1;HPM_P2
2024/03/17 00:00:50;;;;;;;1.53;1.30;;;6.90;98.20;;;;;;5454665;23;20507;-79
2024/03/17 00:03:16;;;;;;;1.60;1.30;;;6.90;98.20;;;;;;4934633;28;20472;-80
2024/03/17 00:05:43;;;;;;;1.60;1.40;;;6.90;98.20;;;;;;4919159;29;20480;-79
2024/03/17 00:08:09;;;;;;;1.53;1.30;;;6.90;98.20;;;;;;4917368;28;20233;-79
2024/03/17 00:10:36;;;;;;;1.50;1.20;;;6.90;98.20;;;;;;4920697;29;20957;-79
2024/03/17 00:13:02;;;;;;;1.60;1.43;;;6.90;98.20;;;;;;4924581;28;20480;-80
2024/03/17 00:15:29;;;;;;;1.60;1.40;;;6.90;98.20;;;;;;4917800;29;20479;-79
2024/03/17 00:17:56;;;;;;;1.57;1.27;;;6.90;98.20;;;;;;4918705;28;20236;-79
2024/03/17 00:20:24;;;;;;;1.50;1.20;;;6.90;98.20;;;;;;4920336;29;20895;-79
2024/03/17 00:22:51;;;;;;;1.57;1.30;;;6.90;98.20;;;;;;4911423;29;20485;-78
2024/03/17 00:25:18;;;;;;;1.60;1.30;;;6.80;98.20;;;;;;4918419;29;20477;-80
2024/03/17 00:27:44;;;;;;;1.60;1.50;;;6.80;98.20;;;;;;4919759;28;21560;-80
2024/03/17 00:30:13;;;;;;;1.60;1.43;;;6.80;98.20;;;;;;4911395;29;20465;-81
2024/03/17 00:32:39;;;;;;;1.57;1.30;;;6.80;98.20;;;;;;4918341;28;20475;-81
2024/03/17 00:35:09;;;;;;;1.50;1.30;;;6.80;98.20;;;;;;4915652;29;20473;-81
2024/03/17 00:37:36;;;;;;;1.60;1.30;;;6.80;98.20;;;;;;4912785;29;20522;-80
2024/03/17 00:40:03;;;;;;;1.50;1.20;;;6.80;98.20;;;;;;4916700;29;20503;-80
2024/03/17 00:42:30;;;;;;;1.57;1.30;;;6.70;98.20;;;;;;4911080;29;20514;-82
2024/03/17 00:44:59;;;;;;;1.60;1.30;;;6.70;98.20;;;;;;4914993;29;20644;-81
2024/03/17 00:47:25;;;;;;;1.50;1.20;;;6.70;98.20;;;;;;4916022;29;20503;-78
2024/03/17 00:49:52;;;;;;;1.50;1.20;;;6.70;98.20;;;;;;4913387;29;20547;-78
2024/03/17 00:52:19;;;;;;;1.57;1.23;;;6.70;98.20;;;;;;4908749;29;20251;-79
2024/03/17 00:54:48;;;;;;;1.57;1.20;;;6.70;98.20;;;;;;4917866;29;20477;-79
2024/03/17 00:57:14;;;;;;;1.60;1.30;;;6.70;98.20;;;;;;4915312;29;20999;-78
2024/03/17 00:59:40;;;;;;;1.57;1.30;;;6.80;98.20;;;;;;4918211;29;20496;-80
2024/03/17 01:02:06;;;;;;;1.53;1.30;;;6.80;98.20;;;;;;4913073;28;20255;-79
2024/03/17 01:04:33;;;;;;;1.53;1.30;;;6.80;98.20;;;;;;4920034;29;20560;-78
2024/03/17 01:06:59;;;;;;;1.60;1.50;;;6.80;98.20;;;;;;4912189;29;20235;-78
2024/03/17 01:09:27;;;;;;;1.53;1.30;;;6.80;98.20;;;;;;4915979;29;20475;-79
2024/03/17 01:11:53;;;;;;;1.60;1.30;;;6.80;98.20;;;;;;4912041;29;20243;-78
2024/03/17 01:14:20;;;;;;;1.60;1.30;;;6.80;98.20;;;;;;4919953;29;20480;-78
2024/03/17 01:16:45;;;;;;;1.57;1.30;;;6.80;98.20;;;;;;4913132;29;20239;-78
2024/03/17 01:19:12;;;;;;;1.60;1.30;;;6.80;98.20;;;;;;4922859;29;20492;-78
2024/03/17 01:21:38;;;;;;;1.60;1.30;;;6.80;98.20;;;;;;4910758;28;20238;-78
2024/03/17 01:24:05;;;;;;;1.50;1.30;;;6.80;98.20;;;;;;4916694;29;20476;-78
2024/03/17 01:26:32;;;;;;;1.57;1.20;;;6.80;98.20;;;;;;4912191;28;20722;-79
2024/03/17 01:28:59;;;;;;;1.53;1.30;;;6.80;98.20;;;;;;4924385;29;20464;-78
2024/03/17 01:36:29;;;;;;;1.50;1.30;;;6.80;98.20;;;;;;4904966;28;20489;-78
2024/03/17 01:38:55;;;;;;;1.57;1.20;;;6.70;98.20;;;;;;4923076;28;20587;-79
2024/03/17 01:41:21;;;;;;;1.60;1.27;;;6.80;98.20;;;;;;4911464;28;20482;-79
2024/03/17 01:43:49;;;;;;;1.60;1.30;;;6.80;98.20;;;;;;4922913;28;20488;-79
2024/03/17 01:46:17;;;;;;;1.60;1.30;;;6.80;98.20;;;;;;4906972;29;20554;-79
2024/03/17 01:48:45;;;;;;;1.60;1.33;;;6.70;98.20;;;;;;4922584;29;20552;-79
2024/03/17 01:51:14;;;;;;;1.60;1.33;;;6.70;98.20;;;;;;4907547;28;21021;-78
2024/03/17 01:53:41;;;;;;;1.53;1.20;;;6.70;98.20;;;;;;4921499;29;21031;-79
2024/03/17 01:56:10;;;;;;;1.50;1.20;;;6.70;98.20;;;;;;4904902;28;20479;-79
2024/03/17 01:58:36;;;;;;;1.50;1.30;;;6.70;98.20;;;;;;4928338;29;20484;-79
2024/03/17 02:01:05;;;;;;;1.50;1.20;;;6.70;98.20;;;;;;4904622;28;20472;-79
2024/03/17 02:03:31;;;;;;;1.60;1.20;;;6.60;98.20;;;;;;4923303;29;20228;-79
2024/03/17 02:05:58;;;;;;;1.57;1.30;;;6.60;98.20;;;;;;4901957;28;20867;-78
2024/03/17 02:08:25;;;;;;;1.60;1.50;;;6.60;98.20;;;;;;4925997;29;20475;-78
2024/03/17 02:10:53;;;;;;;1.50;1.20;;;6.50;98.20;;;;;;4900759;29;20476;-78
2024/03/17 02:13:20;;;;;;;1.53;1.20;;;6.50;98.20;;;;;;4910917;29;20496;-78
2024/03/17 02:15:46;;;;;;;1.60;1.30;;;6.40;98.20;;;;;;4907053;29;20474;-78
2024/03/17 02:18:14;;;;;;;1.50;1.20;;;6.40;98.20;;;;;;4925412;29;20915;-78
2024/03/17 02:20:57;;;;;;;1.60;1.30;;;6.40;98.20;;;;;;4907963;29;20281;-79
2024/03/17 02:23:26;;;;;;;1.60;1.30;;;6.30;98.20;;;;;;4906361;29;21017;-78
2024/03/17 02:25:52;;;;;;;1.53;1.30;;;6.30;98.20;;;;;;4904508;29;20576;-78
2024/03/17 02:28:19;;;;;;;1.60;1.40;;;6.20;98.20;;;;;;4915229;29;20567;-80
2024/03/17 02:30:45;;;;;;;1.50;1.20;;;6.20;98.20;;;;;;4907146;28;20212;-79
2024/03/17 02:33:12;;;;;;;1.60;1.40;;;6.20;98.20;;;;;;4923292;29;20492;-79
2024/03/17 02:35:38;;;;;;;1.53;1.30;;;6.10;98.20;;;;;;4910539;29;20213;-78
2024/03/17 02:38:04;;;;;;;1.57;1.30;;;6.10;98.20;;;;;;4905103;29;20634;-79
2024/03/17 02:40:32;;;;;;;1.60;1.40;;;6.10;98.20;;;;;;4909900;29;20239;-79
2024/03/17 02:43:00;;;;;;;1.53;1.30;;;6.10;98.20;;;;;;4914776;29;20503;-79
2024/03/17 02:45:27;;;;;;;1.50;1.30;;;6.00;98.20;;;;;;4910977;29;20555;-80
2024/03/17 02:47:53;;;;;;;1.57;1.27;;;6.00;98.20;;;;;;4906578;29;20492;-80
2024/03/17 02:50:20;;;;;;;1.60;1.33;;;6.00;98.20;;;;;;4916729;29;20831;-80
2024/03/17 02:52:47;;;;;;;1.60;1.30;;;6.00;98.20;;;;;;4920859;28;20475;-79
2024/03/17 02:55:14;;;;;;;1.63;1.53;;;6.00;98.20;;;;;;4917343;29;20473;-80
2024/03/17 02:57:42;;;;;;;1.60;1.30;;;5.90;98.20;;;;;;4916400;28;20897;-78
2024/03/17 03:00:12;;;;;;;1.57;1.30;;;5.90;98.20;;;;;;4913063;29;20504;-79
2024/03/17 03:02:40;;;;;;;1.53;1.30;;;5.90;98.20;;;;;;4916858;28;20929;-81
2024/03/17 03:05:07;;;;;;;1.60;1.20;;;5.90;98.20;;;;;;4919380;29;20512;-79
2024/03/17 03:07:34;;;;;;;1.60;1.40;;;5.80;98.20;;;;;;4916581;28;20538;-80
2024/03/17 03:10:01;;;;;;;1.53;1.30;;;5.80;98.20;;;;;;4920317;29;20479;-79
2024/03/17 03:12:27;;;;;;;1.60;1.50;;;5.80;98.20;;;;;;4919261;28;20484;-78
2024/03/17 03:14:55;;;;;;;1.53;1.20;;;5.80;98.20;;;;;;4922133;29;20569;-79
2024/03/17 03:17:23;;;;;;;1.60;1.30;;;5.80;98.20;;;;;;4918938;28;20489;-78
2024/03/17 03:19:50;;;;;;;1.60;1.50;;;5.80;98.20;;;;;;4921412;29;20500;-79
2024/03/17 03:22:17;;;;;;;1.60;1.30;;;5.80;98.20;;;;;;4918754;28;20891;-79
2024/03/17 03:24:44;;;;;;;1.53;1.30;;;5.80;98.20;;;;;;4925623;29;20485;-78
2024/03/17 03:27:11;;;;;;;1.60;1.40;;;5.80;98.20;;;;;;4917015;28;20487;-78
2024/03/17 03:29:38;;;;;;;1.60;1.37;;;5.80;98.20;;;;;;4922336;29;20472;-79
2024/03/17 03:32:07;;;;;;;1.63;1.50;;;5.80;98.20;;;;;;4917525;28;20496;-79
2024/03/17 03:34:34;;;;;;;1.50;1.30;;;5.80;98.20;;;;;;4925161;29;20485;-79
2024/03/17 03:37:01;;;;;;;1.57;1.30;;;5.80;98.20;;;;;;4918306;29;20495;-79
2024/03/17 03:39:31;;;;;;;1.53;1.20;;;5.80;98.20;;;;;;4925930;29;21017;-79
2024/03/17 03:41:58;;;;;;;1.57;1.30;;;5.80;98.20;;;;;;4916779;28;20535;-79
2024/03/17 03:44:25;;;;;;;1.57;1.37;;;5.80;98.20;;;;;;4925196;29;20505;-78
2024/03/17 03:46:53;;;;;;;1.57;1.30;;;5.80;98.20;;;;;;4913881;28;20488;-79
2024/03/17 03:49:21;;;;;;;1.50;1.30;;;5.70;98.20;;;;;;4924165;29;20460;-79
2024/03/17 03:51:47;;;;;;;1.57;1.30;;;5.70;98.20;;;;;;4915207;28;20503;-79
2024/03/17 03:54:14;;;;;;;1.57;1.30;;;5.80;98.20;;;;;;4925462;29;20998;-79
2024/03/17 03:56:41;;;;;;;1.60;1.40;;;5.70;98.20;;;;;;4904200;29;20477;-78
2024/03/17 03:59:08;;;;;;;1.57;1.30;;;5.70;98.20;;;;;;4916784;29;20569;-79
2024/03/17 04:01:35;;;;;;;1.53;1.30;;;5.70;98.20;;;;;;4915234;28;20482;-79
2024/03/17 04:04:03;;;;;;;1.53;1.30;;;5.70;98.20;;;;;;4924960;29;20500;-79
2024/03/17 04:06:31;;;;;;;1.57;1.30;;;5.70;98.20;;;;;;4914855;28;20485;-78
2024/03/17 04:08:58;;;;;;;1.57;1.30;;;5.70;98.20;;;;;;4924467;29;20545;-80
2024/03/17 04:11:25;;;;;;;1.57;1.30;;;5.70;98.20;;;;;;4916332;28;20487;-79
2024/03/17 04:13:51;;;;;;;1.50;1.30;;;5.70;98.20;;;;;;4926493;29;20651;-79
2024/03/17 04:16:18;;;;;;;1.60;1.40;;;5.70;98.20;;;;;;4910703;28;20484;-79
2024/03/17 04:18:45;;;;;;;1.50;1.30;;;5.80;98.20;;;;;;4925285;29;20470;-79
2024/03/17 04:21:11;;;;;;;1.57;1.27;;;5.80;98.20;;;;;;4912600;28;20598;-80
2024/03/17 04:23:39;;;;;;;1.60;1.40;;;5.80;98.20;;;;;;4925112;29;20836;-78
2024/03/17 04:26:07;;;;;;;2.00;1.90;;;5.80;98.20;;;;;;4908138;28;23037;-81
2024/03/17 04:28:35;;;;;;;1.60;1.30;;;5.80;98.20;;;;;;4926942;29;20552;-81
2024/03/17 04:31:05;;;;;;;1.60;1.30;;;5.90;98.20;;;;;;4905659;28;20472;-81
2024/03/17 04:33:33;;;;;;;1.83;1.73;;;5.90;98.20;;;;;;4925410;29;20484;-80
2024/03/17 04:35:59;;;;;;;5.33;4.70;;;5.90;98.20;;;;;;4907623;28;20499;-81
2024/03/17 04:38:26;;;;;;;1.57;1.30;;;6.00;98.20;;;;;;4924579;29;20502;-81
2024/03/17 04:41:04;;;;;;;2.00;1.80;;;6.00;98.20;;;;;;4910441;28;20492;-80
2024/03/17 04:43:32;;;;;;;1.57;1.33;;;6.00;98.20;;;;;;4926895;29;20998;-80
2024/03/17 04:46:04;;;;;;;1.50;1.30;;;6.00;98.20;;;;;;4907622;28;20469;-80
2024/03/17 04:48:31;;;;;;;1.53;1.30;;;6.00;98.20;;;;;;4923998;29;20872;-80
2024/03/17 04:50:58;;;;;;;1.60;1.40;;;6.10;98.20;;;;;;4909832;28;20465;-81
2024/03/17 04:53:25;;;;;;;1.60;1.50;;;6.10;98.20;;;;;;4928909;29;20701;-80
2024/03/17 04:56:04;;;;;;;1.60;1.30;;;6.10;98.20;;;;;;4910889;28;20473;-80
2024/03/17 04:58:31;;;;;;;1.53;1.30;;;6.10;98.20;;;;;;4925157;29;20491;-80
2024/03/17 05:00:58;;;;;;;1.57;1.30;;;6.10;98.20;;;;;;4909530;28;20492;-80
2024/03/17 05:03:25;;;;;;;1.60;1.30;;;6.10;98.20;;;;;;4925991;29;21002;-80
2024/03/17 05:06:01;;;;;;;1.50;1.40;;;6.10;98.20;;;;;;4910504;28;20499;-80
2024/03/17 05:08:27;;;;;;;1.57;1.27;;;6.10;98.20;;;;;;4926415;29;20928;-80
2024/03/17 05:10:57;;;;;;;1.57;1.30;;;6.10;98.20;;;;;;4909945;28;20476;-81
2024/03/17 05:13:26;;;;;;;1.60;1.40;;;6.10;98.20;;;;;;4924266;29;20499;-80
2024/03/17 05:15:52;;;;;;;2.17;1.97;;;6.10;98.20;;;;;;4909898;28;20855;-80
2024/03/17 05:18:19;;;;;;;1.50;1.30;;;6.10;98.20;;;;;;4925005;29;20476;-80
2024/03/17 05:20:48;;;;;;;1.60;1.30;;;6.10;98.20;;;;;;4913807;28;20634;-80
2024/03/17 05:23:14;;;;;;;1.57;1.20;;;6.10;98.20;;;;;;4925463;29;20933;-79
2024/03/17 05:25:41;;;;;;;1.57;1.30;;;6.10;98.20;;;;;;4913388;29;20564;-79
2024/03/17 05:28:08;;;;;;;1.57;1.27;;;6.10;98.20;;;;;;4914883;28;20995;-79
2024/03/17 05:30:38;;;;;;;1.53;1.30;;;6.10;98.20;;;;;;4915875;29;20464;-80
2024/03/17 05:33:07;;;;;;;1.50;1.30;;;6.10;98.20;;;;;;4916170;28;20497;-80
2024/03/17 05:35:34;;;;;;;1.60;1.30;;;6.10;98.20;;;;;;4916603;29;20480;-80
2024/03/17 05:38:01;;;;;;;1.60;1.30;;;6.00;98.20;;;;;;4915695;28;20487;-78
2024/03/17 05:40:30;;;;;;;1.60;1.30;;;6.00;98.20;;;;;;4913241;29;21029;-79
2024/03/17 05:42:57;;;;;;;1.57;1.20;;;6.00;98.20;;;;;;4913700;28;20488;-79
2024/03/17 05:45:24;;;;;;;1.57;1.27;;;6.00;98.20;;;;;;4913062;29;20784;-79
2024/03/17 05:47:52;;;;;;;1.57;1.30;;;5.90;98.20;;;;;;4914955;28;20492;-79
2024/03/17 05:50:19;;;;;;;1.53;1.20;;;5.90;98.20;;;;;;4911015;29;20465;-79
2024/03/17 05:52:47;;;;;;;1.57;1.30;;;5.90;98.20;;;;;;4921280;28;20487;-80
2024/03/17 05:55:14;;;;;;;1.60;1.47;;;5.90;98.20;;;;;;4914019;29;20881;-79
2024/03/17 05:57:42;;;;;;;1.53;1.30;;;5.90;98.20;;;;;;4914602;28;20494;-80
2024/03/17 06:00:11;;;;;;;1.53;1.30;;;5.90;98.20;;;;;;4904962;29;20496;-79
2024/03/17 06:02:40;;;;;;;1.50;1.20;;;5.90;98.20;;;;;;4915706;28;20496;-79
2024/03/17 06:05:12;;;;;;;1.60;1.30;;;5.90;98.20;;;;;;4911739;29;20824;-79
2024/03/17 06:07:38;;;;;;;1.53;1.20;;;5.90;98.20;;;;;;4916675;28;20488;-79
2024/03/17 06:10:06;;;;;;;1.57;1.30;;;5.90;98.20;;;;;;4904929;29;20468;-79
2024/03/17 06:12:33;;;;;;;1.57;1.23;;;5.90;98.20;;;;;;4912531;28;20499;-80
2024/03/17 06:15:01;;;;;;;1.57;1.30;;;5.90;98.20;;;;;;4905681;29;20559;-78
2024/03/17 06:17:28;;;;;;;1.53;1.20;;;5.90;98.20;;;;;;4913041;28;20528;-79
2024/03/17 06:19:55;;;;;;;1.60;1.40;;;5.90;98.20;;;;;;4912409;29;20861;-80
2024/03/17 06:22:24;;;;;;;1.60;1.30;;;5.90;98.20;;;;;;4908922;28;20493;-80
2024/03/17 06:24:50;;;;;;;1.57;1.40;;;6.00;98.20;;;;;;4908025;29;20465;-79
2024/03/17 06:27:17;;;;;;;1.60;1.30;;;6.00;98.20;;;;;;4906604;29;20571;-80
2024/03/17 06:29:45;;;;;;;1.60;1.40;;;6.00;98.20;;;;;;4911448;29;20479;-79
2024/03/17 06:32:12;;;;;;;1.57;1.27;;;6.10;98.20;;;;;;4904186;28;20483;-79
2024/03/17 06:34:39;;;;;;;1.60;1.30;;;6.10;98.20;;;;;;4901114;29;20532;-79
2024/03/17 06:37:05;;;;;;;1.50;1.30;;;6.20;98.20;;;;;;4903488;28;21030;-80
2024/03/17 06:39:34;;;;;;;1.57;1.30;;;6.20;98.20;;;;;;4913557;29;20953;-79
2024/03/17 06:42:03;;;;;;;1.53;1.30;;;6.30;98.20;;;;;;4908433;28;20495;-79
2024/03/17 06:44:30;;;;;;;1.53;1.20;;;6.30;98.20;;;;;;4911662;29;20477;-80
2024/03/17 06:46:57;;;;;;;1.50;1.20;;;6.40;98.20;;;;;;4903239;28;20562;-81
2024/03/17 06:49:23;;;;;;;1.50;1.20;;;6.40;98.20;;;;;;4910746;29;20505;-79
2024/03/17 06:51:50;;;;;;;1.57;1.30;;;6.50;98.20;;;;;;4896301;28;21003;-79
2024/03/17 06:54:17;;;;;;;1.53;1.20;;;6.50;98.20;;;;;;4915405;29;21018;-80
2024/03/17 06:56:46;;;;;;;1.50;1.20;;;6.60;98.20;;;;;;4902749;28;20485;-81
2024/03/17 06:59:12;;;;;;;1.80;1.70;;;6.60;98.20;;;;;;4910560;29;20522;-80
2024/03/17 07:01:39;;;;;;;1.60;1.30;;;6.60;98.20;;;;;;4904551;28;20492;-80
2024/03/17 07:04:06;;;;;;;1.50;1.20;;;6.60;98.20;;;;;;4904456;29;20663;-80
2024/03/17 07:06:33;;;;;;;1.53;1.20;;;6.60;98.20;;;;;;4904683;28;20539;-80
2024/03/17 07:09:00;;;;;;;1.50;1.20;;;6.60;98.20;;;;;;4913854;29;20467;-80
2024/03/17 07:11:26;;;;;;;1.53;1.20;;;6.60;98.20;;;;;;4900486;28;20484;-80
2024/03/17 07:13:55;;;;;;;1.53;1.20;;;6.70;98.20;;;;;;4918727;29;20553;-81
2024/03/17 07:16:24;;;;;;;1.60;1.40;;;6.70;98.20;;;;;;4899456;28;20484;-81
2024/03/17 07:18:52;;;;;;;1.60;1.30;;;6.70;98.20;;;;;;4920166;29;20460;-80
2024/03/17 07:21:19;;;;;;;1.50;1.20;;;6.80;98.20;;;;;;4902908;28;21456;-80
2024/03/17 07:23:46;;;;;;;1.50;1.20;;;6.80;98.20;;;;;;4918864;29;20501;-80
2024/03/17 07:26:14;;;;;;;1.57;1.30;;;6.90;98.20;;;;;;4902609;28;20483;-81
2024/03/17 07:28:41;;;;;;;1.53;1.23;;;7.10;98.20;;;;;;4922235;29;20472;-82
2024/03/17 07:31:11;;;;;;;1.60;1.30;;;7.30;98.20;;;;;;4900688;28;20562;-80
2024/03/17 07:33:38;;;;;;;1.50;1.20;;;7.60;98.20;;;;;;4917435;29;20492;-81
2024/03/17 07:36:07;;;;;;;1.60;1.20;;;7.80;98.20;;;;;;4897148;29;20469;-80
2024/03/17 07:38:35;;;;;;;1.50;1.20;;;8.00;98.20;;;;;;4925572;29;20465;-80
2024/03/17 07:41:03;;;;;;;1.60;1.30;;;8.20;98.20;;;;;;4904607;28;21030;-81
2024/03/17 07:43:34;;;;;;;1.60;1.40;;;8.40;98.20;;;;;;4923268;29;20485;-81
2024/03/17 07:46:02;;;;;;;1.60;1.37;;;8.60;98.20;;;;;;4897881;28;20488;-80
2024/03/17 07:48:30;;;;;;;1.57;1.20;;;8.80;98.20;;;;;;4924444;29;20481;-79
2024/03/17 07:53:26;;;;;;;1.57;1.20;;;9.00;98.20;;;;;;4931549;28;20953;-80
2024/03/17 07:56:07;;;;;;;1.60;1.40;;;9.20;98.20;;;;;;4908612;28;20473;-81
2024/03/17 07:58:35;;;;;;;2.73;2.53;;;9.40;98.20;;;;;;4932495;29;20496;-80
2024/03/17 08:01:03;;;;;;;1.53;1.10;;;9.50;98.20;;;;;;4903723;29;20501;-81
2024/03/17 08:03:32;;;;;;;3.40;3.20;;;9.70;98.20;;;;;;4911857;29;20519;-80
2024/03/17 08:06:00;;;;;;;1.57;1.20;;;9.90;98.20;;;;;;4901900;29;20504;-80
2024/03/17 08:08:26;;;;;;;1.60;1.30;;;10.00;98.20;;;;;;4906278;29;20724;-81
2024/03/17 08:10:53;;;;;;;1.60;1.20;;;10.20;98.20;;;;;;4909152;29;20592;-81
2024/03/17 08:13:21;;;;;;;1.50;1.10;;;10.40;98.20;;;;;;4911141;29;20481;-81
2024/03/17 08:15:57;;;;;;;1.60;1.30;;;10.60;98.20;;;;;;4900971;29;20972;-81
2024/03/17 08:18:24;;;;;;;1.50;1.10;;;10.80;98.20;;;;;;4906104;29;20540;-81
2024/03/17 08:20:53;;;;;;;1.60;1.30;;;11.00;98.20;;;;;;4896453;29;20535;-82
2024/03/17 08:23:20;;;;;;;1.93;1.73;;;11.10;98.20;;;;;;4903615;29;20473;-80
2024/03/17 08:25:53;;;;;;;1.60;1.20;;;10.90;98.20;;;;;;4901158;29;20512;-80
2024/03/17 08:28:20;;;;;;;1.53;1.10;;;10.70;98.20;;;;;;4906587;29;20474;-80
2024/03/17 08:30:52;;;;;;;1.60;1.30;;;10.60;98.20;;;;;;4906165;29;20489;-80
2024/03/17 08:33:19;;;;;;;1.60;1.20;;;10.70;98.20;;;;;;4913266;29;20481;-80
2024/03/17 08:35:55;;;;;;;1.50;1.10;;;10.80;98.20;;;;;;4912873;29;20471;-81
2024/03/17 08:38:23;;;;;;;1.53;1.13;;;11.00;98.20;;;;;;4910044;29;20528;-80
2024/03/17 08:40:50;;;;;;;1.60;1.20;;;11.30;98.20;;;;;;4903345;29;20499;-80
2024/03/17 08:43:17;;;;;;;1.50;1.10;;;11.40;98.20;;;;;;4906712;29;20473;-80
2024/03/17 08:45:44;;;;;;;1.60;1.10;;;11.50;98.20;;;;;;4911170;29;20473;-80
2024/03/17 08:48:11;;;;;;;1.57;1.10;;;11.50;98.20;;;;;;4895480;29;20469;-80
2024/03/17 08:50:38;;;;;;;1.50;1.00;;;11.60;98.20;;;;;;4895678;29;20492;-80
2024/03/17 08:53:06;;;;;;;1.50;1.00;;;11.60;98.20;;;;;;4897420;29;20472;-79
2024/03/17 08:55:33;;;;;;;1.57;1.10;;;11.50;98.20;;;;;;4899233;29;20501;-79
2024/03/17 08:58:00;;;;;;;1.50;1.00;;;11.40;98.20;;;;;;4892146;29;20480;-79
2024/03/17 09:00:27;;;;;;;1.57;1.20;;;11.40;98.20;;;;;;4893323;29;20822;-79
2024/03/17 09:02:53;;;;;;;1.50;1.10;;;11.40;98.20;;;;;;4893522;29;20500;-79
2024/03/17 09:05:20;;;;;;;1.53;1.10;;;11.30;98.20;;;;;;4892832;29;20952;-80
2024/03/17 09:07:47;;;;;;;1.50;1.10;;;11.40;98.20;;;;;;4894630;29;20565;-79
2024/03/17 09:10:15;;;;;;;1.50;1.20;;;11.40;98.20;;;;;;4894199;29;20516;-80
2024/03/17 09:12:42;;;;;;;1.50;1.10;;;11.30;98.20;;;;;;4894188;29;21128;-78
2024/03/17 09:15:11;;;;;;;1.50;1.00;;;11.30;98.20;;;;;;4894013;29;20472;-80
2024/03/17 09:17:39;;;;;;;1.53;1.00;;;11.40;98.20;;;;;;4895662;29;20470;-79
2024/03/17 09:20:11;;;;;;;1.50;1.00;;;11.40;98.20;;;;;;4892371;29;20520;-79
2024/03/17 09:22:38;;;;;;;1.50;1.10;;;11.40;98.20;;;;;;4897972;29;20498;-80
2024/03/17 09:25:07;;;;;;;1.50;1.00;;;11.40;98.20;;;;;;4897661;29;20466;-80
2024/03/17 09:27:36;;;;;;;3.07;2.77;;;11.50;98.20;;;;;;4898419;29;20478;-80
2024/03/17 09:30:05;;;;;;;1.60;1.27;;;11.50;98.20;;;;;;4896247;29;20504;-79
2024/03/17 09:32:32;;;;;;;1.50;1.00;;;11.50;98.20;;;;;;4897278;29;20533;-81
2024/03/17 09:34:59;;;;;;;1.50;1.00;;;11.40;98.20;;;;;;4896882;29;20525;-80
2024/03/17 09:37:27;;;;;;;1.50;1.00;;;11.50;98.20;;;;;;4896575;29;20866;-79
2024/03/17 09:39:57;;;;;;;1.50;1.00;;;11.50;98.20;;;;;;4896759;29;20502;-79
2024/03/17 09:42:24;;;;;;;1.50;1.00;;;11.60;98.20;;;;;;4896523;29;20558;-79
2024/03/17 09:44:54;;;;;;;1.50;1.00;;;11.60;98.20;;;;;;4896583;29;20473;-80
2024/03/17 09:47:22;;;;;;;1.50;1.10;;;11.60;98.20;;;;;;4895195;29;20601;-79
2024/03/17 09:49:50;;;;;;;1.50;1.00;;;11.70;98.20;;;;;;4896134;29;21044;-78
2024/03/17 09:52:22;;;;;;;1.50;1.10;;;11.60;98.20;;;;;;4894952;29;20484;-79
2024/03/17 09:55:00;;;;;;;1.50;1.10;;;11.60;98.20;;;;;;4896613;29;20503;-79
2024/03/17 09:57:27;;;;;;;1.50;1.00;;;11.70;98.20;;;;;;4896842;29;20465;-79
2024/03/17 09:59:56;;;;;;;1.50;0.97;;;11.80;98.20;;;;;;4896785;29;21099;-79
2024/03/17 10:02:23;;;;;;;1.50;1.00;;;11.90;98.20;;;;;;4895407;29;20497;-79
2024/03/17 10:04:50;;;;;;;1.50;1.10;;;11.90;98.20;;;;;;4897008;29;20470;-79
2024/03/17 10:07:16;;;;;;;1.50;1.10;;;12.00;98.20;;;;;;4898166;29;20474;-78
2024/03/17 10:09:44;;;;;;;1.50;1.10;;;12.20;98.20;;;;;;4897110;29;20486;-79
2024/03/17 10:12:28;;;;;;;1.60;1.30;;;12.30;98.20;;;;;;4894705;29;20520;-79
2024/03/17 10:15:04;;;;;;;1.50;1.00;;;12.40;98.20;;;;;;4898589;29;20999;-79
2024/03/17 10:17:32;;;;;;;1.50;1.10;;;12.60;98.20;;;;;;4893810;29;20482;-79
2024/03/17 10:20:16;;;;;;;1.50;1.10;;;12.60;98.20;;;;;;4898241;29;20489;-78
2024/03/17 10:23:03;;;;;;;1.50;1.00;;;12.60;98.20;;;;;;4899646;29;20497;-78
2024/03/17 10:25:32;;;;;;;1.50;1.00;;;12.60;98.20;;;;;;4897024;29;20469;-78
2024/03/17 10:27:59;;;;;;;1.50;1.10;;;12.70;98.20;;;;;;4896736;29;20485;-79
2024/03/17 10:30:28;;;;;;;1.50;1.10;;;12.70;98.20;;;;;;4896380;29;20493;-79
2024/03/17 10:32:57;;;;;;;1.50;1.00;;;12.80;98.20;;;;;;4897347;29;20485;-79
2024/03/17 10:35:27;;;;;;;1.50;1.10;;;12.90;98.20;;;;;;4897206;29;20469;-79
2024/03/17 10:37:55;;;;;;;1.50;1.00;;;13.10;98.20;;;;;;4899114;29;20483;-79
2024/03/17 10:40:24;;;;;;;1.50;1.00;;;13.20;98.20;;;;;;4894877;29;20548;-78
2024/03/17 10:42:52;;;;;;;6.23;5.83;;;13.30;98.20;;;;;;4894421;29;20505;-79
2024/03/17 10:45:19;;;;;;;1.50;1.00;;;13.30;98.20;;;;;;4896466;29;20466;-79
2024/03/17 10:47:49;;;;;;;1.50;1.00;;;13.30;98.20;;;;;;4897172;29;20492;-79
2024/03/17 10:50:18;;;;;;;1.50;1.00;;;13.30;98.20;;;;;;4895316;29;20565;-79
2024/03/17 10:52:49;;;;;;;1.50;1.10;;;13.40;98.20;;;;;;4896668;29;20485;-77
2024/03/17 10:55:23;;;;;;;1.50;1.00;;;13.50;98.20;;;;;;4894256;29;21126;-80
2024/03/17 10:57:51;;;;;;;1.50;0.97;;;13.70;98.20;;;;;;4896536;29;20466;-79
2024/03/17 11:00:21;;;;;;;1.50;1.10;;;13.80;98.20;;;;;;4894351;29;20564;-80
2024/03/17 11:02:51;;;;;;;1.70;1.53;;;13.90;98.20;;;;;;4894021;29;20496;-79
2024/03/17 11:05:20;;;;;;;1.50;0.93;;;14.20;98.20;;;;;;4894796;29;20469;-78
2024/03/17 11:07:48;;;;;;;1.50;1.00;;;14.50;98.20;;;;;;4896555;29;20844;-81
2024/03/17 11:10:21;;;;;;;1.50;1.00;;;14.70;98.20;;;;;;4896370;29;20481;-79
2024/03/17 11:12:50;;;;;;;1.50;1.00;;;15.00;98.20;;;;;;4899098;29;20466;-80
2024/03/17 11:15:40;;;;;;;1.53;1.00;;;15.30;98.20;;;;;;4898006;29;20556;-80
2024/03/17 11:18:34;;;;;;;1.50;1.00;;;15.60;97.80;;;;;;4898954;29;20474;-81
2024/03/17 11:21:08;;;;;;;1.50;1.00;;;15.80;96.50;;;;;;4895540;29;20481;-78
2024/03/17 11:23:36;;;;;;;1.50;1.00;;;15.80;95.90;;;;;;4899239;29;21027;-78
2024/03/17 11:26:08;;;;;;;1.50;1.00;;;15.90;95.70;;;;;;4900812;29;20584;-80
2024/03/17 11:28:48;;;;;;;2.67;1.73;;;16.00;95.80;;;;;;4897070;29;20629;-77
2024/03/17 11:31:44;;;;;;;1.60;1.10;;;16.00;95.90;;;;;;4896981;29;20509;-79
2024/03/17 11:34:34;;;;;;;1.50;1.00;;;15.90;96.60;;;;;;4899151;29;20612;-80
2024/03/17 11:37:04;;;;;;;1.60;1.07;;;15.90;94.20;;;;;;4897894;29;20996;-81
2024/03/17 11:39:49;;;;;;;1.50;0.90;;;15.90;95.70;;;;;;4900614;29;20480;-80
2024/03/17 11:42:16;;;;;;;1.50;0.90;;;15.90;96.50;;;;;;4898421;29;20496;-79
2024/03/17 11:44:43;;;;;;;1.50;0.93;;;16.00;97.20;;;;;;4899637;29;20544;-80
2024/03/17 11:47:09;;;;;;;1.50;1.00;;;16.20;96.80;;;;;;4899305;29;20502;-79
2024/03/17 11:49:37;;;;;;;1.47;0.90;;;16.00;95.10;;;;;;4899635;29;20512;-81
2024/03/17 11:52:05;;;;;;;1.50;0.90;;;15.90;96.00;;;;;;4898573;29;20473;-79
2024/03/17 11:54:33;;;;;;;1.50;0.90;;;15.80;96.20;;;;;;4895512;29;21088;-80
2024/03/17 11:57:07;;;;;;;1.80;1.10;;;15.80;96.30;;;;;;4902175;29;21022;-80
2024/03/17 11:59:33;;;;;;;1.50;0.90;;;15.80;96.50;;;;;;4901911;29;21018;-80
2024/03/17 12:02:02;;;;;;;1.50;0.90;;;15.90;96.90;;;;;;4900058;29;20497;-79
2024/03/17 12:04:28;;;;;;;1.50;0.90;;;16.00;95.90;;;;;;4899695;29;20508;-80
2024/03/17 12:06:57;;;;;;;1.87;1.50;;;16.00;95.80;;;;;;4900288;29;20545;-80
2024/03/17 12:09:24;;;;;;;1.50;0.90;;;16.00;96.20;;;;;;4899178;29;20229;-79
2024/03/17 12:11:58;;;;;;;1.50;0.90;;;16.00;95.20;;;;;;4898563;29;20474;-79
2024/03/17 12:14:25;;;;;;;1.43;0.90;;;15.90;94.60;;;;;;4898976;29;20865;-78
2024/03/17 12:16:53;;;;;;;1.47;0.90;;;15.90;95.00;;;;;;4899800;29;20473;-80
2024/03/17 12:19:20;;;;;;;1.50;0.90;;;15.90;95.70;;;;;;4897222;29;20995;-80
2024/03/17 12:21:50;;;;;;;1.50;0.90;;;16.00;95.00;;;;;;4900338;29;20922;-80
2024/03/17 12:24:21;;;;;;;1.50;0.90;;;16.00;95.00;;;;;;4900042;29;20573;-79
2024/03/17 12:26:47;;;;;;;1.43;0.90;;;15.90;94.80;;;;;;4900807;29;20474;-80
2024/03/17 12:29:25;;;;;;;1.50;0.90;;;15.80;94.70;;;;;;4898442;29;20560;-78
2024/03/17 12:31:52;;;;;;;1.50;1.00;;;15.60;94.70;;;;;;4900755;29;20465;-79
2024/03/17 12:34:30;;;;;;;1.50;0.90;;;15.50;95.60;;;;;;4902501;29;20516;-80
2024/03/17 12:37:00;;;;;;;1.50;1.00;;;15.60;96.00;;;;;;4898846;29;20541;-79
2024/03/17 12:39:30;;;;;;;1.50;1.10;;;15.50;95.40;;;;;;4899932;29;20601;-80
2024/03/17 12:42:03;;;;;;;1.50;0.90;;;15.40;96.40;;;;;;4900619;29;20462;-80
2024/03/17 12:44:33;;;;;;;1.43;0.90;;;15.50;95.40;;;;;;4898949;29;20557;-79
2024/03/17 12:47:00;;;;;;;1.50;0.90;;;15.50;94.90;;;;;;4899697;29;20477;-79
2024/03/17 12:49:28;;;;;;;1.43;0.90;;;15.50;95.20;;;;;;4899506;29;20497;-80
2024/03/17 12:51:54;;;;;;;1.50;0.93;;;15.60;94.50;;;;;;4899612;29;20612;-80
2024/03/17 12:54:25;;;;;;;1.80;1.50;;;15.60;94.50;;;;;;4899004;29;20569;-80
2024/03/17 13:02:34;;;;;;;1.50;0.90;;;15.50;94.10;;;;;;4900811;29;20477;-81
2024/03/17 13:05:18;;;;;;;1.43;0.90;;;15.30;94.40;;;;;;4903016;29;20478;-80
2024/03/17 13:07:48;;;;;;;1.50;0.90;;;15.30;94.80;;;;;;4900112;29;20554;-80
2024/03/17 13:10:16;;;;;;;1.50;1.00;;;15.30;94.40;;;;;;4900397;29;20489;-80
2024/03/17 13:12:45;;;;;;;1.50;1.00;;;15.30;95.50;;;;;;4892559;29;20493;-80